To NAV CANADA Home Page Login to a new session Search on AWWS site Feedback and Comments Disclaimer Vers la page française équivalente Tips FAQ What's new on the site To the Forecasts and Observations / NOTAM section To "File a Flight Plan" website Publications and other links Update of the User's profile FIC Telephone Numbers My Weather Data Folder Route Weather Data Regional Weather Data Local Weather Data To the Forecasts and Observations / NOTAM section
Request Generated 07/02/2015 at 03:36:21 UTC . Weather information available at that time is displayed.

METAR/TAF

GANDER/GANDER INTL/NL    

METAR CYQX 020300Z 14005KT 20SM FEW160 BKN260 10/09 A3004 RMK AC1CI4
SLP175=
METAR CYQX 020200Z 14008KT 20SM FEW160 FEW260 11/10 A3004 RMK AC1CI1
SLP175=
METAR CYQX 020100Z 11007KT 20SM FEW050 FEW160 SCT260 12/10 A3004 RMK
SC1AC1CI2 SLP175=

TAF CYQX 012338Z 0200/0224 12008KT P6SM SCT050
FM020600 12010KT P6SM FEW002 BKN040 TEMPO 0206/0211 SCT040 PROB30
0206/0209 3/4SM BR OVC002
FM021100 12010KT P6SM FEW004 SCT040
FM021800 12012G22KT P6SM BKN050
BECMG 0222/0224 13012KT
RMK NXT FCST BY 020600Z=
Your time UTC time
Weather data provided by Environment Canada and NAV CANADA